Ekwok, AK (99580)

12:15 PM AKST on February 06, 2016 (GMT -0900)
New Stuyahok AP, New Stuyahok | | Change Station
CLOSE
Current Station
Airport
Location: New Stuyahok AP, New Stuyahok,
Elevation: 302 ft
Nearby Weather Stations

Elev 302 ft 59.45 °N, 157.33 °W | Updated 19 minutes ago

Overcast
Overcast
34 °F
Feels Like 27 °F
N
8
Wind Variable Wind from South

Today
High -- | Low -- °F
--% Chance of Precip.
Yesterday
High -- | Low -- °F
Precip. -- in
Pressure 29.71 in
Visibility 10.0 miles
Clouds Overcast 800 ft
Windchill 27 °F
Dew Point 33 °F
Humidity 96%
Rainfall 0.03 in
Snow Depth Not available.
9:29 AM 6:00 PM
Waning Crescent, 4% visible
METAR PANW 062056Z AUTO 18007KT 10SM OVC008 01/01 A2966 RMK AO2 SLP060 T00110006 53046 FZRANO
Pressure 29.71 in
Visibility 10.0 miles
Clouds Overcast 800 ft
Windchill 27 °F
Dew Point 33 °F
Humidity 96%
Rainfall 0.03 in
Snow Depth Not available.
9:29 AM 6:00 PM
Waning Crescent, 4% visible
METAR PANW 062056Z AUTO 18007KT 10SM OVC008 01/01 A2966 RMK AO2 SLP060 T00110006 53046 FZRANO

10-Day Weather Forecast

Almanac

Astronomy

Feb. 06, 2016 Rise Set
Actual Time
Civil Twilight
Nautical Twilight
Astronomical Twilight
Moon
Length of Visible Light
Length of Day
Tomorrow will be .
, % of the Moon is Illuminated

Today's Extremes

State Highs State Lows

Community

WunderPhotos

Upload Photos

1,891,050 photos uploaded!

WunderBlog® & News

Nearby

Air Quality

  Air Quality AQ Index Pollutant
Not available.

Snow Depth

Station Depth Elevation

Earthquake Activity

City Distance Mag. Time & Date
Minimum magnitude displayed is 2.5.

Coastal Water Temperatures

Place Temperature

Stations

Nearby Weather Stations

Station Location Temp. Windchill Dew Point Humidity Wind Precip. Elev Updated Type
                   

Watches & Warnings

There are currently no watches in effect.